createdAt,value
2022-10-08T00:00:10.434Z,12.83
2022-10-08T00:02:38.283Z,12.74
2022-10-08T00:05:07.064Z,12.79
2022-10-08T00:07:36.952Z,12.86
2022-10-08T00:10:06.370Z,12.96
2022-10-08T00:12:35.121Z,12.91
2022-10-08T00:15:03.256Z,12.77
2022-10-08T00:17:31.588Z,12.91
2022-10-08T00:19:59.718Z,12.92
2022-10-08T00:22:27.929Z,12.92
2022-10-08T00:24:57.734Z,12.88
2022-10-08T00:27:25.651Z,12.95
2022-10-08T00:29:54.109Z,12.94
2022-10-08T00:32:21.934Z,12.92
2022-10-08T00:34:50.348Z,12.88
2022-10-08T00:37:18.397Z,12.91
2022-10-08T00:39:46.409Z,12.93
2022-10-08T00:42:16.447Z,12.93
2022-10-08T00:44:58.731Z,12.95
2022-10-08T00:47:40.084Z,12.93
2022-10-08T00:50:13.340Z,12.94
2022-10-08T00:52:44.800Z,12.93
2022-10-08T00:55:15.298Z,12.85
2022-10-08T00:57:44.940Z,12.79
2022-10-08T01:00:15.896Z,12.89
2022-10-08T01:02:44.223Z,12.83
2022-10-08T01:05:15.786Z,12.92
2022-10-08T01:07:51.879Z,12.93
2022-10-08T01:10:33.338Z,12.95
2022-10-08T01:13:18.348Z,13.00
2022-10-08T01:15:56.597Z,13.00
2022-10-08T01:18:36.802Z,13.03
2022-10-08T01:21:13.242Z,13.11
2022-10-08T01:24:07.685Z,13.11
2022-10-08T01:26:55.979Z,13.16
2022-10-08T01:29:31.167Z,13.14
2022-10-08T01:32:03.413Z,13.08
2022-10-08T01:34:37.792Z,13.19
2022-10-08T01:37:11.104Z,13.16
2022-10-08T01:39:41.825Z,12.96
2022-10-08T01:42:12.120Z,13.04
2022-10-08T01:44:46.495Z,13.07
2022-10-08T01:47:19.673Z,13.07
2022-10-08T01:49:54.355Z,13.04
2022-10-08T01:52:26.711Z,13.19
2022-10-08T01:55:00.068Z,13.20
2022-10-08T01:57:30.205Z,13.22
2022-10-08T02:00:04.940Z,13.16
2022-10-08T02:02:32.945Z,13.22
2022-10-08T02:05:00.839Z,13.26
2022-10-08T02:07:32.672Z,13.23
2022-10-08T02:10:06.793Z,13.20
2022-10-08T02:12:36.529Z,12.90
2022-10-08T02:15:07.845Z,13.07
2022-10-08T02:17:41.472Z,13.15
2022-10-08T02:20:17.765Z,13.20
2022-10-08T02:22:55.148Z,13.20
2022-10-08T02:25:31.484Z,13.18
2022-10-08T02:28:09.016Z,13.20
2022-10-08T02:30:44.343Z,13.17
2022-10-08T02:33:17.076Z,13.06
2022-10-08T02:35:49.076Z,13.13
2022-10-08T02:38:23.664Z,13.12
2022-10-08T02:40:55.358Z,13.03
2022-10-08T02:43:27.090Z,12.99
2022-10-08T02:46:00.288Z,12.90
2022-10-08T02:48:32.408Z,12.82
2022-10-08T02:51:06.411Z,12.71
2022-10-08T02:53:37.880Z,12.68
2022-10-08T02:56:14.163Z,12.56
2022-10-08T02:58:43.668Z,12.47
2022-10-08T03:01:18.357Z,12.38
2022-10-08T03:03:55.168Z,12.33
2022-10-08T03:06:23.385Z,12.24
2022-10-08T03:08:52.592Z,12.26
2022-10-08T03:11:20.861Z,12.09
2022-10-08T03:13:51.179Z,12.10
2022-10-08T03:16:23.802Z,12.05
2022-10-08T03:18:53.172Z,12.03
2022-10-08T03:21:21.749Z,11.96
2022-10-08T03:23:49.842Z,11.94
2022-10-08T03:26:18.525Z,11.87
2022-10-08T03:28:46.493Z,11.95
2022-10-08T03:31:14.564Z,11.90
2022-10-08T03:33:43.920Z,11.79
2022-10-08T03:36:12.913Z,11.84
2022-10-08T03:38:40.759Z,11.74
2022-10-08T03:41:10.288Z,11.76
2022-10-08T03:43:41.162Z,11.78
2022-10-08T03:46:10.204Z,11.82
2022-10-08T03:48:38.474Z,11.84
2022-10-08T03:51:10.837Z,11.84
2022-10-08T03:53:41.231Z,11.77
2022-10-08T03:56:12.219Z,11.73
2022-10-08T03:58:40.498Z,11.71
2022-10-08T04:01:11.766Z,11.71
2022-10-08T04:03:40.252Z,11.72
2022-10-08T04:06:10.175Z,11.74
2022-10-08T04:08:38.465Z,11.64
2022-10-08T04:11:10.358Z,11.68
2022-10-08T04:13:39.729Z,11.62
2022-10-08T04:16:10.204Z,11.60
2022-10-08T04:18:38.351Z,11.66
2022-10-08T04:21:07.923Z,11.60
2022-10-08T04:23:38.858Z,11.60
2022-10-08T04:26:07.445Z,11.60
2022-10-08T04:28:38.860Z,11.62
2022-10-08T04:31:10.176Z,11.62
2022-10-08T04:33:38.930Z,11.61
2022-10-08T04:36:09.372Z,11.60
2022-10-08T04:38:38.978Z,11.57
2022-10-08T04:41:09.251Z,11.55
2022-10-08T04:43:39.260Z,11.48
2022-10-08T04:46:09.715Z,11.51
2022-10-08T04:48:38.126Z,11.38
2022-10-08T04:51:10.735Z,11.48
2022-10-08T04:53:40.200Z,11.36
2022-10-08T04:56:10.556Z,11.46
2022-10-08T04:58:38.535Z,11.35
2022-10-08T05:01:07.589Z,11.41
2022-10-08T05:03:38.601Z,11.41
2022-10-08T05:06:07.661Z,11.37
2022-10-08T05:08:36.085Z,11.37
2022-10-08T05:11:05.530Z,11.28
2022-10-08T05:13:33.429Z,11.32
2022-10-08T05:16:05.264Z,11.32
2022-10-08T05:18:33.685Z,11.32
2022-10-08T05:21:04.593Z,11.30
2022-10-08T05:23:32.598Z,11.18
2022-10-08T05:26:02.342Z,11.03
2022-10-08T05:28:31.614Z,11.08
2022-10-08T05:31:03.099Z,11.12
2022-10-08T05:33:31.241Z,11.18
2022-10-08T05:36:03.223Z,11.16
2022-10-08T05:38:34.949Z,11.15
2022-10-08T05:41:11.095Z,11.17
2022-10-08T05:43:40.618Z,11.22
2022-10-08T05:46:09.050Z,11.16
2022-10-08T05:48:38.127Z,11.14
2022-10-08T05:51:07.559Z,11.28
2022-10-08T05:53:37.200Z,11.18
2022-10-08T05:56:07.178Z,11.32
2022-10-08T05:58:39.699Z,11.33
2022-10-08T06:01:17.591Z,11.32
2022-10-08T06:03:49.984Z,11.41
2022-10-08T06:06:18.058Z,11.23
2022-10-08T06:08:46.513Z,11.39
2022-10-08T06:11:14.487Z,11.32
2022-10-08T06:13:42.424Z,11.38
2022-10-08T06:16:13.202Z,11.39
2022-10-08T06:18:42.656Z,11.41
2022-10-08T06:21:13.089Z,11.44
2022-10-08T06:23:46.433Z,11.40
2022-10-08T06:26:14.460Z,11.39
2022-10-08T06:28:42.539Z,11.30
2022-10-08T06:31:12.544Z,11.38
2022-10-08T06:33:40.746Z,11.38
2022-10-08T06:36:14.281Z,11.35
2022-10-08T06:38:42.380Z,11.44
2022-10-08T06:41:10.366Z,11.39
2022-10-08T06:43:38.148Z,11.57
2022-10-08T06:46:10.493Z,11.43
2022-10-08T06:48:39.781Z,11.57
2022-10-08T06:51:09.511Z,11.60
2022-10-08T06:53:37.740Z,11.55
2022-10-08T06:56:07.461Z,11.62
2022-10-08T06:58:36.238Z,11.61
2022-10-08T07:01:06.009Z,11.67
2022-10-08T07:03:34.422Z,11.67
2022-10-08T07:06:05.069Z,11.74
2022-10-08T07:08:33.067Z,11.86
2022-10-08T07:11:05.437Z,12.09
2022-10-08T07:13:33.706Z,12.18
2022-10-08T07:16:06.665Z,12.39
2022-10-08T07:18:35.829Z,12.32
2022-10-08T07:21:06.476Z,12.45
2022-10-08T07:23:36.383Z,12.19
2022-10-08T07:26:06.701Z,12.36
2022-10-08T07:28:37.435Z,12.96
2022-10-08T07:31:06.099Z,13.79
2022-10-08T07:33:34.126Z,14.15
2022-10-08T07:36:11.966Z,14.12
2022-10-08T07:38:40.672Z,13.95
2022-10-08T07:41:09.917Z,14.07
2022-10-08T07:43:41.404Z,14.40
2022-10-08T07:46:10.851Z,14.80
2022-10-08T07:48:39.061Z,14.71
2022-10-08T07:51:10.835Z,14.52
2022-10-08T07:53:39.241Z,14.22
2022-10-08T07:56:11.770Z,13.79
2022-10-08T07:58:40.199Z,13.55
2022-10-08T08:01:11.458Z,13.31
2022-10-08T08:03:39.444Z,13.33
2022-10-08T08:06:11.200Z,13.49
2022-10-08T08:08:42.115Z,13.93
2022-10-08T08:11:13.146Z,14.03
2022-10-08T08:13:42.201Z,14.07
2022-10-08T08:16:13.005Z,13.78
2022-10-08T08:18:42.725Z,13.90
2022-10-08T08:21:14.743Z,13.90
2022-10-08T08:23:44.021Z,13.84
2022-10-08T08:26:14.163Z,13.91
2022-10-08T08:28:42.517Z,14.43
2022-10-08T08:31:11.774Z,14.99
2022-10-08T08:33:40.079Z,14.99
2022-10-08T08:36:08.680Z,14.43
2022-10-08T08:38:39.667Z,14.33
2022-10-08T08:41:20.360Z,14.20
2022-10-08T08:43:49.431Z,14.82
2022-10-08T08:46:22.216Z,14.60
2022-10-08T08:48:56.782Z,15.31
2022-10-08T08:51:24.823Z,15.87
2022-10-08T08:53:55.031Z,15.92
2022-10-08T08:56:25.712Z,15.95
2022-10-08T08:59:03.629Z,16.30
2022-10-08T09:01:37.404Z,16.73
2022-10-08T09:04:11.884Z,17.61
2022-10-08T09:06:41.814Z,18.14
2022-10-08T09:09:27.893Z,17.95
2022-10-08T09:11:56.740Z,17.42
2022-10-08T09:14:35.792Z,16.94
2022-10-08T09:17:15.319Z,16.17
2022-10-08T09:19:43.839Z,16.15
2022-10-08T09:22:23.101Z,16.32
2022-10-08T09:24:58.338Z,16.39
2022-10-08T09:27:44.987Z,16.85
2022-10-08T09:30:45.100Z,17.20
2022-10-08T09:33:29.591Z,17.30
2022-10-08T09:35:57.559Z,17.29
2022-10-08T09:38:27.440Z,17.03
2022-10-08T09:41:06.216Z,16.05
2022-10-08T09:43:35.654Z,15.33
2022-10-08T09:46:12.186Z,15.63
2022-10-08T09:48:41.795Z,17.17
2022-10-08T09:51:16.274Z,19.14
2022-10-08T09:53:46.502Z,19.90
2022-10-08T09:56:16.550Z,20.52
2022-10-08T09:58:54.031Z,21.47
2022-10-08T10:01:22.530Z,22.41
2022-10-08T10:03:53.909Z,22.52
2022-10-08T10:06:31.078Z,23.17
2022-10-08T10:09:03.913Z,21.41
2022-10-08T10:11:38.545Z,20.82
2022-10-08T10:14:19.611Z,20.72
2022-10-08T10:16:51.742Z,20.20
2022-10-08T10:19:24.047Z,19.23
2022-10-08T10:21:59.769Z,18.99
2022-10-08T10:24:50.174Z,19.57
2022-10-08T10:27:26.043Z,19.19
2022-10-08T10:30:00.560Z,19.87
2022-10-08T10:32:36.190Z,20.32
2022-10-08T10:35:08.593Z,20.24
2022-10-08T10:37:44.976Z,20.06
2022-10-08T10:40:31.029Z,19.54
2022-10-08T10:43:16.074Z,19.26
2022-10-08T10:45:48.462Z,20.10
2022-10-08T10:48:16.469Z,19.79
2022-10-08T10:50:52.015Z,19.07
2022-10-08T10:53:27.327Z,18.58
2022-10-08T10:56:06.158Z,17.51
2022-10-08T10:59:04.272Z,17.52
2022-10-08T11:01:39.914Z,17.43
2022-10-08T11:04:17.656Z,17.92
2022-10-08T11:07:02.674Z,17.51
2022-10-08T11:09:42.195Z,16.90
2022-10-08T11:12:28.554Z,16.96
2022-10-08T11:15:07.649Z,18.38
2022-10-08T11:17:55.583Z,18.05
2022-10-08T11:20:40.192Z,19.23
2022-10-08T11:23:19.663Z,19.29
2022-10-08T11:26:19.102Z,19.55
2022-10-08T11:28:52.926Z,18.13
2022-10-08T11:31:33.290Z,17.26
2022-10-08T11:34:04.764Z,17.15
2022-10-08T11:36:41.217Z,17.31
2022-10-08T11:39:19.997Z,17.10
2022-10-08T11:41:54.399Z,16.79
2022-10-08T11:44:22.870Z,16.14
2022-10-08T11:46:52.251Z,15.71
2022-10-08T11:49:49.422Z,15.94
2022-10-08T11:52:17.636Z,16.15
2022-10-08T11:54:55.405Z,16.34
2022-10-08T11:57:55.458Z,17.58
2022-10-08T12:00:33.554Z,18.30
2022-10-08T12:03:05.882Z,18.37
2022-10-08T12:05:47.990Z,18.51
2022-10-08T12:08:49.016Z,18.91
2022-10-08T12:11:51.471Z,19.52
2022-10-08T12:14:46.936Z,19.27
2022-10-08T12:17:15.994Z,19.45
2022-10-08T12:23:07.176Z,19.46
2022-10-08T12:25:38.819Z,19.92
2022-10-08T12:28:52.665Z,21.25
2022-10-08T12:31:47.631Z,21.84
2022-10-08T12:34:20.355Z,22.27
2022-10-08T12:37:09.866Z,22.70
2022-10-08T12:39:45.105Z,22.87
2022-10-08T12:42:22.014Z,22.37
2022-10-08T12:45:09.746Z,22.38
2022-10-08T12:47:53.283Z,22.73
2022-10-08T12:50:38.299Z,23.29
2022-10-08T12:53:07.999Z,22.97
2022-10-08T12:55:48.791Z,22.97
2022-10-08T12:58:20.633Z,22.90
2022-10-08T13:00:54.329Z,22.93
2022-10-08T13:03:22.846Z,23.29
2022-10-08T13:05:51.155Z,22.99
2022-10-08T13:08:28.378Z,22.86
2022-10-08T13:11:01.006Z,23.24
2022-10-08T13:13:41.515Z,23.13
2022-10-08T13:16:13.645Z,22.53
2022-10-08T13:18:46.826Z,23.24
2022-10-08T13:21:28.310Z,23.11
2022-10-08T13:23:56.267Z,23.13
2022-10-08T13:26:45.713Z,23.26
2022-10-08T13:29:34.161Z,22.67
2022-10-08T13:32:09.161Z,22.54
2022-10-08T13:35:17.056Z,21.88
2022-10-08T13:37:45.507Z,21.04
2022-10-08T13:40:22.071Z,21.36
2022-10-08T13:42:53.645Z,22.44
2022-10-08T13:45:23.551Z,23.88
2022-10-08T13:47:52.452Z,25.09
2022-10-08T13:50:33.049Z,25.98
2022-10-08T13:53:02.259Z,25.29
2022-10-08T13:55:32.446Z,25.75
2022-10-08T13:58:04.021Z,26.12
2022-10-08T14:00:34.160Z,25.99
2022-10-08T14:03:02.765Z,25.69
2022-10-08T14:05:33.768Z,25.58
2022-10-08T14:08:05.091Z,25.27
2022-10-08T14:10:33.005Z,24.94
2022-10-08T14:13:04.545Z,23.27
2022-10-08T14:15:32.469Z,21.67
2022-10-08T14:18:00.363Z,21.13
2022-10-08T14:20:28.595Z,20.29
2022-10-08T14:22:58.001Z,19.54
2022-10-08T14:25:28.567Z,18.50
2022-10-08T14:27:56.541Z,18.05
2022-10-08T14:30:26.083Z,17.38
2022-10-08T14:32:54.162Z,16.82
2022-10-08T14:35:22.567Z,16.18
2022-10-08T14:37:51.207Z,15.84
2022-10-08T14:40:22.323Z,15.52
2022-10-08T14:42:51.336Z,15.35
2022-10-08T14:45:44.124Z,15.07
2022-10-08T14:48:29.421Z,14.69
2022-10-08T14:50:59.993Z,14.62
2022-10-08T14:53:28.472Z,14.56
2022-10-08T14:56:11.660Z,14.51
2022-10-08T14:59:23.782Z,14.28
2022-10-08T15:01:56.557Z,13.94
2022-10-08T15:04:26.039Z,14.04
2022-10-08T15:06:56.739Z,14.01
2022-10-08T15:09:24.742Z,13.90
2022-10-08T15:11:52.743Z,13.91
2022-10-08T15:14:20.700Z,13.76
2022-10-08T15:16:48.594Z,13.61
2022-10-08T15:19:19.831Z,13.52
2022-10-08T15:21:52.757Z,13.44
2022-10-08T15:24:20.990Z,13.35
2022-10-08T15:26:51.181Z,13.22
2022-10-08T15:29:19.310Z,12.96
2022-10-08T15:31:48.857Z,12.91
2022-10-08T15:34:18.349Z,12.65
2022-10-08T15:36:46.584Z,12.80
2022-10-08T15:39:17.620Z,12.80
2022-10-08T15:42:19.986Z,12.74
2022-10-08T15:44:48.456Z,12.64
2022-10-08T15:47:16.609Z,12.70
2022-10-08T15:49:45.835Z,12.58
2022-10-08T15:52:59.364Z,12.49
2022-10-08T15:58:32.561Z,12.40
2022-10-08T16:01:07.268Z,12.17
2022-10-08T16:03:37.375Z,12.12
2022-10-08T16:06:09.471Z,12.08
2022-10-08T16:08:46.793Z,11.90
2022-10-08T16:11:16.606Z,11.89
2022-10-08T16:13:47.497Z,11.83
2022-10-08T16:16:20.432Z,11.77
2022-10-08T16:18:52.987Z,11.68
2022-10-08T16:21:21.368Z,11.66
2022-10-08T16:23:50.100Z,11.64
2022-10-08T16:26:21.573Z,11.48
2022-10-08T16:28:52.196Z,11.38
2022-10-08T16:31:20.467Z,11.32
2022-10-08T16:33:49.228Z,11.35
2022-10-08T16:36:17.144Z,11.20
2022-10-08T16:38:45.388Z,11.26
2022-10-08T16:41:34.103Z,10.95
2022-10-08T16:44:11.826Z,11.33
2022-10-08T16:46:42.121Z,11.29
2022-10-08T16:49:17.359Z,11.24
2022-10-08T16:51:49.408Z,11.09
2022-10-08T16:54:18.996Z,11.07
2022-10-08T16:56:47.991Z,10.99
2022-10-08T16:59:20.242Z,11.00
2022-10-08T17:01:50.047Z,11.04
2022-10-08T17:04:19.121Z,10.99
2022-10-08T17:06:48.099Z,10.95
2022-10-08T17:09:16.131Z,10.95
2022-10-08T17:11:44.579Z,10.86
2022-10-08T17:14:13.259Z,10.73
2022-10-08T17:16:43.521Z,10.70
2022-10-08T17:19:11.977Z,10.67
2022-10-08T17:21:40.401Z,10.60
2022-10-08T17:24:09.156Z,10.42
2022-10-08T17:26:37.226Z,10.48
2022-10-08T17:29:07.497Z,10.51
2022-10-08T17:31:36.919Z,10.46
2022-10-08T17:34:07.136Z,10.38
2022-10-08T17:36:37.794Z,10.44
2022-10-08T17:39:10.682Z,10.40
2022-10-08T17:41:48.463Z,10.40
2022-10-08T17:44:17.138Z,10.31
2022-10-08T17:46:47.401Z,10.19
2022-10-08T17:49:18.457Z,10.15
2022-10-08T17:51:48.653Z,10.06
2022-10-08T17:54:19.980Z,10.13
2022-10-08T17:56:50.808Z,10.15
2022-10-08T17:59:21.703Z,10.14
2022-10-08T18:01:50.208Z,10.08
2022-10-08T18:04:20.451Z,9.99
2022-10-08T18:06:49.642Z,9.97
2022-10-08T18:09:19.886Z,9.96
2022-10-08T18:11:51.074Z,9.92
2022-10-08T18:14:19.424Z,9.94
2022-10-08T18:16:49.463Z,9.87
2022-10-08T18:19:19.828Z,9.81
2022-10-08T18:21:47.990Z,9.70
2022-10-08T18:24:26.047Z,9.57
2022-10-08T18:26:53.899Z,9.55
2022-10-08T18:29:21.988Z,9.49
2022-10-08T18:31:52.181Z,9.49
2022-10-08T18:34:21.538Z,9.36
2022-10-08T18:36:49.675Z,9.39
2022-10-08T18:39:21.572Z,9.30
2022-10-08T18:41:53.960Z,9.44
2022-10-08T18:44:24.111Z,9.46
2022-10-08T18:46:52.870Z,9.39
2022-10-08T18:49:29.494Z,9.54
2022-10-08T18:51:58.161Z,9.50
2022-10-08T18:54:26.287Z,9.35
2022-10-08T18:56:55.278Z,9.43
2022-10-08T18:59:27.555Z,9.40
2022-10-08T19:01:59.498Z,9.24
2022-10-08T19:04:37.072Z,9.36
2022-10-08T19:07:23.569Z,8.93
2022-10-08T19:09:56.705Z,9.24
2022-10-08T19:12:58.274Z,8.92
2022-10-08T19:16:26.308Z,8.72
2022-10-08T19:19:59.607Z,8.93
2022-10-08T19:23:21.539Z,9.02
2022-10-08T19:25:47.995Z,8.81
2022-10-08T19:28:18.663Z,8.98
2022-10-08T19:30:49.285Z,8.91
2022-10-08T19:33:17.306Z,8.85
2022-10-08T19:35:45.304Z,8.80
2022-10-08T19:38:14.877Z,8.77
2022-10-08T19:40:43.964Z,8.63
2022-10-08T19:43:15.797Z,8.54
2022-10-08T19:45:47.288Z,8.57
2022-10-08T19:48:15.252Z,8.47
2022-10-08T19:50:46.013Z,8.51
2022-10-08T19:53:18.482Z,8.38
2022-10-08T19:55:46.434Z,8.40
2022-10-08T19:58:14.422Z,8.36
2022-10-08T20:00:42.603Z,8.35
2022-10-08T20:03:10.551Z,8.27
2022-10-08T20:05:40.393Z,8.17
2022-10-08T20:08:08.758Z,8.13
2022-10-08T20:10:41.659Z,7.96
2022-10-08T20:19:28.385Z,7.47
2022-10-08T20:21:56.662Z,7.19
2022-10-08T20:24:27.499Z,7.12
2022-10-08T20:26:59.561Z,6.91
2022-10-08T20:29:35.930Z,6.78
2022-10-08T20:32:06.260Z,6.64
2022-10-08T20:34:34.290Z,6.61
2022-10-08T20:37:02.610Z,6.40
2022-10-08T20:39:31.206Z,6.34
2022-10-08T20:42:00.620Z,6.35
2022-10-08T20:44:29.042Z,6.47
2022-10-08T20:46:56.936Z,6.27
2022-10-08T20:49:24.889Z,6.35
2022-10-08T20:51:53.132Z,6.30
2022-10-08T20:54:21.001Z,6.11
2022-10-08T20:56:48.897Z,5.93
2022-10-08T20:59:19.909Z,5.97
2022-10-08T21:01:50.142Z,5.86
2022-10-08T21:04:18.969Z,5.74
2022-10-08T21:06:48.875Z,5.72
2022-10-08T21:09:20.214Z,5.66
2022-10-08T21:11:49.044Z,5.67
2022-10-08T21:14:21.399Z,5.72
2022-10-08T21:16:51.934Z,5.71
2022-10-08T21:19:23.095Z,5.60
2022-10-08T21:21:52.348Z,5.54
2022-10-08T21:24:21.898Z,5.40
2022-10-08T21:26:49.848Z,5.37
2022-10-08T21:29:19.432Z,5.26
2022-10-08T21:31:47.316Z,5.20
2022-10-08T21:34:15.389Z,5.15
2022-10-08T21:36:46.368Z,5.10
2022-10-08T21:39:17.420Z,5.01
2022-10-08T21:41:45.798Z,5.06
2022-10-08T21:44:15.070Z,5.05
2022-10-08T21:46:44.763Z,5.07
2022-10-08T21:49:14.776Z,5.16
2022-10-08T21:51:43.461Z,5.23
2022-10-08T21:54:12.267Z,5.20
2022-10-08T21:56:42.244Z,5.15
2022-10-08T21:59:13.643Z,5.07
2022-10-08T22:01:43.811Z,5.02
2022-10-08T22:04:14.983Z,4.93
2022-10-08T22:06:45.100Z,4.85
2022-10-08T22:09:15.262Z,4.69
2022-10-08T22:11:46.405Z,4.75
2022-10-08T22:14:16.802Z,4.80
2022-10-08T22:16:45.267Z,4.72
2022-10-08T22:19:15.082Z,4.64
2022-10-08T22:21:43.417Z,4.50
2022-10-08T22:24:11.448Z,4.51
2022-10-08T22:26:42.477Z,4.22
2022-10-08T22:29:10.631Z,4.36
2022-10-08T22:31:39.143Z,4.38
2022-10-08T22:34:07.470Z,4.42
2022-10-08T22:36:40.224Z,4.46
2022-10-08T22:39:08.737Z,4.44
2022-10-08T22:41:37.298Z,4.44
2022-10-08T22:44:05.882Z,4.40
2022-10-08T22:46:37.431Z,4.17
2022-10-08T22:49:08.310Z,4.33
2022-10-08T22:51:38.111Z,4.24
2022-10-08T22:54:08.795Z,4.25
2022-10-08T22:56:36.791Z,3.93
2022-10-08T22:59:05.791Z,4.12
2022-10-08T23:01:34.037Z,4.04
2022-10-08T23:04:01.934Z,4.08
2022-10-08T23:06:32.181Z,4.14
2022-10-08T23:09:03.484Z,4.14
2022-10-08T23:11:32.732Z,4.11
2022-10-08T23:14:01.685Z,4.12
2022-10-08T23:16:32.072Z,4.11
2022-10-08T23:19:01.861Z,4.10
2022-10-08T23:21:30.645Z,4.06
2022-10-08T23:23:59.026Z,4.10
2022-10-08T23:26:29.070Z,4.08
2022-10-08T23:28:59.006Z,4.09
2022-10-08T23:31:29.600Z,3.99
2022-10-08T23:33:58.003Z,4.10
2022-10-08T23:36:28.034Z,4.03
2022-10-08T23:38:56.810Z,4.03
2022-10-08T23:41:25.184Z,4.09
2022-10-08T23:43:55.163Z,4.13
2022-10-08T23:46:25.812Z,4.08
2022-10-08T23:48:56.021Z,4.09
2022-10-08T23:51:26.485Z,4.13
2022-10-08T23:53:54.359Z,4.07
2022-10-08T23:56:22.848Z,4.12
2022-10-08T23:58:51.008Z,4.08
